createdAt,value
2023-04-11T00:00:29.133Z,8.59
2023-04-11T00:03:00.247Z,8.57
2023-04-11T00:05:31.407Z,8.57
2023-04-11T00:07:57.872Z,8.60
2023-04-11T00:10:24.491Z,8.55
2023-04-11T00:12:51.034Z,8.51
2023-04-11T00:15:19.904Z,8.58
2023-04-11T00:17:46.378Z,8.56
2023-04-11T00:20:13.152Z,8.56
2023-04-11T00:22:39.673Z,8.54
2023-04-11T00:25:07.117Z,8.53
2023-04-11T00:27:33.577Z,8.53
2023-04-11T00:30:00.116Z,8.58
2023-04-11T00:32:27.088Z,8.56
2023-04-11T00:34:53.607Z,8.59
2023-04-11T00:37:23.012Z,8.59
2023-04-11T00:39:55.894Z,8.34
2023-04-11T00:42:22.310Z,8.56
2023-04-11T00:44:48.815Z,8.59
2023-04-11T00:47:15.549Z,8.57
2023-04-11T00:49:42.180Z,8.61
2023-04-11T00:52:08.653Z,8.64
2023-04-11T00:54:35.236Z,8.72
2023-04-11T00:57:04.085Z,8.69
2023-04-11T00:59:32.083Z,8.63
2023-04-11T01:01:59.182Z,8.67
2023-04-11T01:04:29.702Z,8.62
2023-04-11T01:06:59.529Z,8.54
2023-04-11T01:09:27.522Z,8.61
2023-04-11T01:11:54.163Z,8.62
2023-04-11T01:14:20.663Z,8.79
2023-04-11T01:16:48.522Z,8.75
2023-04-11T01:19:26.561Z,8.76
2023-04-11T01:21:54.376Z,8.78
2023-04-11T01:24:20.933Z,8.88
2023-04-11T01:26:47.614Z,8.87
2023-04-11T01:29:14.057Z,8.89
2023-04-11T01:31:40.794Z,8.91
2023-04-11T01:34:07.790Z,8.88
2023-04-11T01:36:34.304Z,8.93
2023-04-11T01:39:01.381Z,8.93
2023-04-11T01:41:29.684Z,8.91
2023-04-11T01:43:56.684Z,8.87
2023-04-11T01:46:23.579Z,8.87
2023-04-11T01:48:50.557Z,8.83
2023-04-11T01:51:17.146Z,8.80
2023-04-11T01:53:45.977Z,8.82
2023-04-11T01:56:12.885Z,8.83
2023-04-11T01:58:39.525Z,8.80
2023-04-11T02:01:06.121Z,8.84
2023-04-11T02:03:32.757Z,8.78
2023-04-11T02:05:59.312Z,8.98
2023-04-11T02:08:25.873Z,8.89
2023-04-11T02:10:52.349Z,8.99
2023-04-11T02:13:19.040Z,9.01
2023-04-11T02:15:45.537Z,9.05
2023-04-11T02:18:12.050Z,9.08
2023-04-11T02:20:40.566Z,9.07
2023-04-11T02:23:07.369Z,9.12
2023-04-11T02:25:33.889Z,9.07
2023-04-11T02:28:00.466Z,9.13
2023-04-11T02:30:26.919Z,9.17
2023-04-11T02:32:53.500Z,9.18
2023-04-11T02:35:20.158Z,9.17
2023-04-11T02:37:46.550Z,9.13
2023-04-11T02:40:13.123Z,9.19
2023-04-11T02:42:42.911Z,9.20
2023-04-11T02:45:09.813Z,9.22
2023-04-11T02:47:36.513Z,9.12
2023-04-11T02:50:03.115Z,9.18
2023-04-11T02:52:29.563Z,9.13
2023-04-11T02:54:56.145Z,9.14
2023-04-11T02:57:22.543Z,9.03
2023-04-11T02:59:49.021Z,8.92
2023-04-11T03:02:15.553Z,8.94
2023-04-11T03:04:42.590Z,8.96
2023-04-11T03:07:08.973Z,9.03
2023-04-11T03:09:35.510Z,8.93
2023-04-11T03:12:02.025Z,9.05
2023-04-11T03:14:28.501Z,9.00
2023-04-11T03:16:54.918Z,8.92
2023-04-11T03:19:21.426Z,8.98
2023-04-11T03:21:47.835Z,8.92
2023-04-11T03:24:14.279Z,8.93
2023-04-11T03:26:40.991Z,9.00
2023-04-11T03:29:07.403Z,8.79
2023-04-11T03:31:33.901Z,8.94
2023-04-11T03:34:00.407Z,8.91
2023-04-11T03:36:27.111Z,8.86
2023-04-11T03:38:53.786Z,8.91
2023-04-11T03:41:20.508Z,8.91
2023-04-11T03:43:46.973Z,8.90
2023-04-11T03:46:13.445Z,8.87
2023-04-11T03:48:39.911Z,8.77
2023-04-11T03:51:07.613Z,8.81
2023-04-11T03:53:34.179Z,8.86
2023-04-11T03:56:01.483Z,8.89
2023-04-11T03:58:28.023Z,8.84
2023-04-11T04:00:54.524Z,8.82
2023-04-11T04:03:21.185Z,8.79
2023-04-11T04:05:47.827Z,8.82
2023-04-11T04:08:14.283Z,8.78
2023-04-11T04:10:40.702Z,8.75
2023-04-11T04:13:07.176Z,8.77
2023-04-11T04:15:33.825Z,8.79
2023-04-11T04:18:00.414Z,8.74
2023-04-11T04:20:26.909Z,8.70
2023-04-11T04:22:53.903Z,8.67
2023-04-11T04:25:20.550Z,8.64
2023-04-11T04:27:47.605Z,8.62
2023-04-11T04:30:19.192Z,8.62
2023-04-11T04:32:46.062Z,8.51
2023-04-11T04:35:14.116Z,8.53
2023-04-11T04:37:45.600Z,8.41
2023-04-11T04:40:13.872Z,8.39
2023-04-11T04:42:44.105Z,8.30
2023-04-11T04:45:13.404Z,8.22
2023-04-11T04:47:39.978Z,8.04
2023-04-11T04:50:07.093Z,8.18
2023-04-11T04:52:33.665Z,8.21
2023-04-11T04:55:01.090Z,7.90
2023-04-11T04:57:28.825Z,8.01
2023-04-11T04:59:56.185Z,7.91
2023-04-11T05:02:22.909Z,8.02
2023-04-11T05:04:50.257Z,8.02
2023-04-11T05:07:18.187Z,7.94
2023-04-11T05:09:44.958Z,8.00
2023-04-11T05:12:11.593Z,8.01
2023-04-11T05:14:38.058Z,7.97
2023-04-11T05:17:04.919Z,7.98
2023-04-11T05:19:32.406Z,7.93
2023-04-11T05:21:58.941Z,7.92
2023-04-11T05:24:25.685Z,8.05
2023-04-11T05:26:52.157Z,7.94
2023-04-11T05:29:18.626Z,7.97
2023-04-11T05:31:45.239Z,8.00
2023-04-11T05:34:11.678Z,8.04
2023-04-11T05:36:38.126Z,8.02
2023-04-11T05:39:04.531Z,8.13
2023-04-11T05:41:31.152Z,8.11
2023-04-11T05:43:57.790Z,8.14
2023-04-11T05:46:24.727Z,8.13
2023-04-11T05:48:51.308Z,8.16
2023-04-11T05:51:17.752Z,8.21
2023-04-11T05:53:44.842Z,8.23
2023-04-11T05:56:12.892Z,8.24
2023-04-11T05:58:39.774Z,8.32
2023-04-11T06:01:07.220Z,8.33
2023-04-11T06:03:33.951Z,8.38
2023-04-11T06:06:00.655Z,8.37
2023-04-11T06:08:27.577Z,8.38
2023-04-11T06:10:54.040Z,8.16
2023-04-11T06:13:20.824Z,8.55
2023-04-11T06:15:47.458Z,8.55
2023-04-11T06:18:13.956Z,8.68
2023-04-11T06:20:40.444Z,8.75
2023-04-11T06:23:07.116Z,8.83
2023-04-11T06:25:33.622Z,8.81
2023-04-11T06:28:00.104Z,8.90
2023-04-11T06:30:26.581Z,8.92
2023-04-11T06:32:53.063Z,9.07
2023-04-11T06:35:20.445Z,9.05
2023-04-11T06:37:47.256Z,9.25
2023-04-11T06:40:13.842Z,9.23
2023-04-11T06:42:40.291Z,9.31
2023-04-11T06:45:07.195Z,9.36
2023-04-11T06:47:33.819Z,9.24
2023-04-11T06:50:00.370Z,9.45
2023-04-11T06:52:28.262Z,9.33
2023-04-11T06:54:54.856Z,9.36
2023-04-11T06:57:21.371Z,9.49
2023-04-11T06:59:47.866Z,9.55
2023-04-11T07:02:14.666Z,9.69
2023-04-11T07:04:41.947Z,9.83
2023-04-11T07:07:08.414Z,9.78
2023-04-11T07:09:36.327Z,9.80
2023-04-11T07:12:02.913Z,9.87
2023-04-11T07:14:29.420Z,9.84
2023-04-11T07:16:55.894Z,9.69
2023-04-11T07:19:22.437Z,9.80
2023-04-11T07:21:48.893Z,9.91
2023-04-11T07:24:18.442Z,10.02
2023-04-11T07:26:46.351Z,10.18
2023-04-11T07:29:14.738Z,10.30
2023-04-11T07:31:41.596Z,10.44
2023-04-11T07:34:08.128Z,10.34
2023-04-11T07:36:34.945Z,10.37
2023-04-11T07:39:01.548Z,10.54
2023-04-11T07:41:28.113Z,10.61
2023-04-11T07:43:54.689Z,10.70
2023-04-11T07:46:21.414Z,10.49
2023-04-11T07:48:47.944Z,10.16
2023-04-11T07:51:14.346Z,10.38
2023-04-11T07:53:40.815Z,10.36
2023-04-11T07:56:07.764Z,10.41
2023-04-11T07:58:34.210Z,10.55
2023-04-11T08:01:02.526Z,10.77
2023-04-11T08:03:29.246Z,10.61
2023-04-11T08:05:56.153Z,10.55
2023-04-11T08:08:22.625Z,10.80
2023-04-11T08:10:51.463Z,10.93
2023-04-11T08:13:18.793Z,11.05
2023-04-11T08:15:45.736Z,10.87
2023-04-11T08:18:12.612Z,10.79
2023-04-11T08:20:40.631Z,10.63
2023-04-11T08:23:08.702Z,10.56
2023-04-11T08:25:36.534Z,10.72
2023-04-11T08:28:04.599Z,10.97
2023-04-11T08:30:31.011Z,11.38
2023-04-11T08:32:57.617Z,11.64
2023-04-11T08:35:24.196Z,11.85
2023-04-11T08:37:50.664Z,12.11
2023-04-11T08:40:17.137Z,12.19
2023-04-11T08:42:44.008Z,12.16
2023-04-11T08:45:11.100Z,11.97
2023-04-11T08:47:37.989Z,12.01
2023-04-11T08:50:05.979Z,12.07
2023-04-11T08:52:33.447Z,12.33
2023-04-11T08:55:00.528Z,11.97
2023-04-11T08:57:31.403Z,12.08
2023-04-11T09:00:00.774Z,12.02
2023-04-11T09:02:27.815Z,11.72
2023-04-11T09:04:55.030Z,11.44
2023-04-11T09:07:21.990Z,11.36
2023-04-11T09:09:48.418Z,11.27
2023-04-11T09:12:14.956Z,11.45
2023-04-11T09:14:41.935Z,11.88
2023-04-11T09:17:13.653Z,12.03
2023-04-11T09:19:42.281Z,12.77
2023-04-11T09:22:08.726Z,13.56
2023-04-11T09:24:36.593Z,13.74
2023-04-11T09:27:15.555Z,13.67
2023-04-11T09:29:48.445Z,13.93
2023-04-11T09:32:35.311Z,14.09
2023-04-11T09:35:20.244Z,14.21
2023-04-11T09:37:53.720Z,13.93
2023-04-11T09:40:23.100Z,14.44
2023-04-11T09:42:57.235Z,14.94
2023-04-11T09:45:24.573Z,15.09
2023-04-11T09:47:53.468Z,14.94
2023-04-11T09:50:20.477Z,14.90
2023-04-11T09:52:47.275Z,15.31
2023-04-11T09:55:16.424Z,15.33
2023-04-11T09:57:48.119Z,15.66
2023-04-11T10:00:18.323Z,15.45
2023-04-11T10:02:48.835Z,14.88
2023-04-11T10:05:18.016Z,14.84
2023-04-11T10:07:46.771Z,14.97
2023-04-11T10:10:19.815Z,15.21
2023-04-11T10:12:46.623Z,15.21
2023-04-11T10:15:13.927Z,15.62
2023-04-11T10:17:43.318Z,15.06
2023-04-11T10:20:39.119Z,14.87
2023-04-11T10:23:05.875Z,15.65
2023-04-11T10:25:50.897Z,15.49
2023-04-11T10:28:38.457Z,15.89
2023-04-11T10:31:17.250Z,15.97
2023-04-11T10:34:16.363Z,15.97
2023-04-11T10:37:04.027Z,15.53
2023-04-11T10:39:52.047Z,15.87
2023-04-11T10:42:31.804Z,15.58
2023-04-11T10:45:13.508Z,15.83
2023-04-11T10:47:40.091Z,15.35
2023-04-11T10:50:29.909Z,14.87
2023-04-11T10:53:06.762Z,15.47
2023-04-11T10:55:50.611Z,15.76
2023-04-11T10:58:22.007Z,16.07
2023-04-11T11:00:51.433Z,15.93
2023-04-11T11:03:30.219Z,15.63
2023-04-11T11:06:06.324Z,15.33
2023-04-11T11:08:32.748Z,15.39
2023-04-11T11:11:03.805Z,15.30
2023-04-11T11:13:39.759Z,15.50
2023-04-11T11:16:07.604Z,14.69
2023-04-11T11:18:34.408Z,14.47
2023-04-11T11:21:01.031Z,13.42
2023-04-11T11:23:27.493Z,13.71
2023-04-11T11:25:55.148Z,13.85
2023-04-11T11:28:21.999Z,14.15
2023-04-11T11:30:57.685Z,14.57
2023-04-11T11:33:26.690Z,15.18
2023-04-11T11:35:57.082Z,15.43
2023-04-11T11:38:27.069Z,15.26
2023-04-11T11:40:53.961Z,15.38
2023-04-11T11:43:20.477Z,15.49
2023-04-11T11:45:47.342Z,15.82
2023-04-11T11:48:24.001Z,15.80
2023-04-11T11:50:57.668Z,15.63
2023-04-11T11:53:24.876Z,16.45
2023-04-11T11:55:51.611Z,16.75
2023-04-11T11:58:19.610Z,16.92
2023-04-11T12:00:50.416Z,16.29
2023-04-11T12:03:18.832Z,16.32
2023-04-11T12:05:47.599Z,16.01
2023-04-11T12:08:14.737Z,15.93
2023-04-11T12:10:43.575Z,15.62
2023-04-11T12:13:16.008Z,15.74
2023-04-11T12:15:52.526Z,15.74
2023-04-11T12:18:23.179Z,15.83
2023-04-11T12:20:50.339Z,15.61
2023-04-11T12:23:17.802Z,16.32
2023-04-11T12:25:44.377Z,16.42
2023-04-11T12:28:11.337Z,16.99
2023-04-11T12:30:37.907Z,17.52
2023-04-11T12:33:04.688Z,17.78
2023-04-11T12:35:32.186Z,17.39
2023-04-11T12:37:58.740Z,17.42
2023-04-11T12:40:25.686Z,17.99
2023-04-11T12:42:56.150Z,18.28
2023-04-11T12:45:24.208Z,18.20
2023-04-11T12:47:51.011Z,17.27
2023-04-11T12:50:17.957Z,17.79
2023-04-11T12:52:44.489Z,18.29
2023-04-11T12:55:11.098Z,18.09
2023-04-11T12:57:37.738Z,17.62
2023-04-11T13:00:08.072Z,17.81
2023-04-11T13:02:42.069Z,18.21
2023-04-11T13:05:11.756Z,18.76
2023-04-11T13:07:39.102Z,18.91
2023-04-11T13:10:08.956Z,19.25
2023-04-11T13:12:41.125Z,19.36
2023-04-11T13:15:09.407Z,18.99
2023-04-11T13:17:35.982Z,19.11
2023-04-11T13:20:03.425Z,18.98
2023-04-11T13:22:29.887Z,19.37
2023-04-11T13:24:56.287Z,19.90
2023-04-11T13:27:22.999Z,20.12
2023-04-11T13:29:49.493Z,20.11
2023-04-11T13:32:16.063Z,20.71
2023-04-11T13:34:42.538Z,21.09
2023-04-11T13:37:09.075Z,21.59
2023-04-11T13:39:35.515Z,22.19
2023-04-11T13:42:01.984Z,21.65
2023-04-11T13:44:28.462Z,22.13
2023-04-11T13:46:54.927Z,21.08
2023-04-11T13:49:21.311Z,20.78
2023-04-11T13:51:47.743Z,20.16
2023-04-11T13:54:14.186Z,20.37
2023-04-11T13:56:41.170Z,20.96
2023-04-11T13:59:07.580Z,21.46
2023-04-11T14:01:34.158Z,21.39
2023-04-11T14:04:01.257Z,21.19
2023-04-11T14:06:28.313Z,20.69
2023-04-11T14:08:54.743Z,20.47
2023-04-11T14:11:21.614Z,21.37
2023-04-11T14:13:48.878Z,20.56
2023-04-11T14:16:15.416Z,21.78
2023-04-11T14:18:42.150Z,21.80
2023-04-11T14:21:08.841Z,21.81
2023-04-11T14:23:35.980Z,21.62
2023-04-11T14:26:02.783Z,22.09
2023-04-11T14:28:29.241Z,22.15
2023-04-11T14:30:56.500Z,22.76
2023-04-11T14:33:23.451Z,22.79
2023-04-11T14:35:50.705Z,22.76
2023-04-11T14:38:17.181Z,22.56
2023-04-11T14:40:44.397Z,22.08
2023-04-11T14:43:11.235Z,21.56
2023-04-11T14:45:37.797Z,20.80
2023-04-11T14:48:04.632Z,20.41
2023-04-11T14:50:31.215Z,21.02
2023-04-11T14:52:57.812Z,22.05
2023-04-11T14:55:24.231Z,22.83
2023-04-11T14:57:55.239Z,22.66
2023-04-11T15:00:22.337Z,22.09
2023-04-11T15:02:51.954Z,22.09
2023-04-11T15:05:19.615Z,22.13
2023-04-11T15:07:47.839Z,21.78
2023-04-11T15:10:16.305Z,22.81
2023-04-11T15:12:42.754Z,22.71
2023-04-11T15:15:11.082Z,22.60
2023-04-11T15:17:40.756Z,21.98
2023-04-11T15:20:09.532Z,21.93
2023-04-11T15:22:39.495Z,21.63
2023-04-11T15:25:08.273Z,22.11
2023-04-11T15:27:34.846Z,22.83
2023-04-11T15:30:02.277Z,23.47
2023-04-11T15:32:28.953Z,23.16
2023-04-11T15:34:56.722Z,23.91
2023-04-11T15:37:23.251Z,23.92
2023-04-11T15:39:50.007Z,23.49
2023-04-11T15:42:16.865Z,22.55
2023-04-11T15:44:46.408Z,22.40
2023-04-11T15:47:12.938Z,22.73
2023-04-11T15:49:39.781Z,23.20
2023-04-11T15:52:06.920Z,22.83
2023-04-11T15:54:33.428Z,23.17
2023-04-11T15:56:59.895Z,23.34
2023-04-11T15:59:26.950Z,23.50
2023-04-11T16:01:53.491Z,23.62
2023-04-11T16:04:20.543Z,22.83
2023-04-11T16:06:47.280Z,22.84
2023-04-11T16:09:13.740Z,22.89
2023-04-11T16:11:40.563Z,23.05
2023-04-11T16:14:07.128Z,23.04
2023-04-11T16:16:33.622Z,22.50
2023-04-11T16:19:00.227Z,23.11
2023-04-11T16:21:27.203Z,23.30
2023-04-11T16:23:54.860Z,23.02
2023-04-11T16:26:21.672Z,23.60
2023-04-11T16:28:48.848Z,22.83
2023-04-11T16:31:21.682Z,22.30
2023-04-11T16:33:48.180Z,22.49
2023-04-11T16:36:14.721Z,22.50
2023-04-11T16:38:41.146Z,22.60
2023-04-11T16:41:07.656Z,22.48
2023-04-11T16:43:34.122Z,22.06
2023-04-11T16:46:00.703Z,20.59
2023-04-11T16:48:27.246Z,20.11
2023-04-11T16:50:53.744Z,20.01
2023-04-11T16:53:20.373Z,19.68
2023-04-11T16:55:46.879Z,19.38
2023-04-11T16:58:13.307Z,18.48
2023-04-11T17:00:39.740Z,18.03
2023-04-11T17:03:07.225Z,17.95
2023-04-11T17:05:36.557Z,17.92
2023-04-11T17:08:03.000Z,17.53
2023-04-11T17:10:29.609Z,17.83
2023-04-11T17:12:58.227Z,17.55
2023-04-11T17:15:24.652Z,17.47
2023-04-11T17:17:51.175Z,17.08
2023-04-11T17:20:17.789Z,16.85
2023-04-11T17:22:44.915Z,16.67
2023-04-11T17:25:11.795Z,16.31
2023-04-11T17:27:38.821Z,16.20
2023-04-11T17:30:05.988Z,15.90
2023-04-11T17:32:32.558Z,15.62
2023-04-11T17:35:00.675Z,15.54
2023-04-11T17:37:27.711Z,15.38
2023-04-11T17:39:54.550Z,15.25
2023-04-11T17:42:21.311Z,15.31
2023-04-11T17:44:47.802Z,15.17
2023-04-11T17:47:14.280Z,15.21
2023-04-11T17:49:40.777Z,15.18
2023-04-11T17:52:07.230Z,15.26
2023-04-11T17:54:34.071Z,15.21
2023-04-11T17:57:01.159Z,15.14
2023-04-11T17:59:27.731Z,15.07
2023-04-11T18:01:55.933Z,14.85
2023-04-11T18:04:23.193Z,14.88
2023-04-11T18:06:49.737Z,14.80
2023-04-11T18:09:16.980Z,14.71
2023-04-11T18:11:43.869Z,14.64
2023-04-11T18:14:10.699Z,14.59
2023-04-11T18:16:39.123Z,14.52
2023-04-11T18:19:05.990Z,14.41
2023-04-11T18:21:32.581Z,14.35
2023-04-11T18:23:59.141Z,14.11
2023-04-11T18:26:25.857Z,14.19
2023-04-11T18:28:52.340Z,14.16
2023-04-11T18:31:18.909Z,13.97
2023-04-11T18:33:47.554Z,14.06
2023-04-11T18:36:14.237Z,14.06
2023-04-11T18:38:40.927Z,14.03
2023-04-11T18:41:08.005Z,13.99
2023-04-11T18:43:35.621Z,14.01
2023-04-11T18:46:02.221Z,14.04
2023-04-11T18:48:28.738Z,13.91
2023-04-11T18:51:03.502Z,13.82
2023-04-11T18:53:30.875Z,13.86
2023-04-11T18:55:57.897Z,13.82
2023-04-11T18:58:26.150Z,13.85
2023-04-11T19:00:53.691Z,13.73
2023-04-11T19:03:21.245Z,13.68
2023-04-11T19:05:48.230Z,13.65
2023-04-11T19:08:14.892Z,13.66
2023-04-11T19:10:41.396Z,13.66
2023-04-11T19:13:07.936Z,13.63
2023-04-11T19:15:34.373Z,13.62
2023-04-11T19:18:01.714Z,13.48
2023-04-11T19:20:29.428Z,13.67
2023-04-11T19:22:55.921Z,13.71
2023-04-11T19:25:22.407Z,13.69
2023-04-11T19:27:49.672Z,13.64
2023-04-11T19:30:16.345Z,13.66
2023-04-11T19:32:47.654Z,13.55
2023-04-11T19:35:14.689Z,13.45
2023-04-11T19:37:41.652Z,13.34
2023-04-11T19:40:11.067Z,13.35
2023-04-11T19:42:39.135Z,13.37
2023-04-11T19:45:06.549Z,13.30
2023-04-11T19:47:33.150Z,13.26
2023-04-11T19:50:00.904Z,13.23
2023-04-11T19:52:27.943Z,13.25
2023-04-11T19:54:55.773Z,13.27
2023-04-11T19:57:23.323Z,13.31
2023-04-11T19:59:50.583Z,13.26
2023-04-11T20:02:17.190Z,13.29
2023-04-11T20:04:44.602Z,13.26
2023-04-11T20:07:11.460Z,13.17
2023-04-11T20:09:37.936Z,13.16
2023-04-11T20:12:06.197Z,13.12
2023-04-11T20:14:33.308Z,13.03
2023-04-11T20:16:59.974Z,13.06
2023-04-11T20:19:31.659Z,13.06
2023-04-11T20:22:01.146Z,13.04
2023-04-11T20:24:27.815Z,13.01
2023-04-11T20:26:54.948Z,13.04
2023-04-11T20:29:24.648Z,13.00
2023-04-11T20:31:51.123Z,13.01
2023-04-11T20:34:17.738Z,13.02
2023-04-11T20:36:44.541Z,12.98
2023-04-11T20:39:11.020Z,12.97
2023-04-11T20:41:40.298Z,12.95
2023-04-11T20:44:06.866Z,12.91
2023-04-11T20:46:39.282Z,12.77
2023-04-11T20:49:05.816Z,12.71
2023-04-11T20:51:32.203Z,12.77
2023-04-11T20:53:58.930Z,12.63
2023-04-11T20:56:25.444Z,12.61
2023-04-11T20:58:51.897Z,12.61
2023-04-11T21:01:18.340Z,12.58
2023-04-11T21:03:45.160Z,12.60
2023-04-11T21:06:11.687Z,12.64
2023-04-11T21:08:38.145Z,12.61
2023-04-11T21:11:05.643Z,12.49
2023-04-11T21:13:32.208Z,12.44
2023-04-11T21:15:58.852Z,12.04
2023-04-11T21:18:25.486Z,12.31
2023-04-11T21:20:51.896Z,12.41
2023-04-11T21:23:19.657Z,12.44
2023-04-11T21:25:46.933Z,12.47
2023-04-11T21:28:13.579Z,12.29
2023-04-11T21:30:40.068Z,12.34
2023-04-11T21:33:06.633Z,12.46
2023-04-11T21:35:33.225Z,12.25
2023-04-11T21:37:59.762Z,12.32
2023-04-11T21:40:26.280Z,12.31
2023-04-11T21:42:53.170Z,12.23
2023-04-11T21:45:19.588Z,12.26
2023-04-11T21:47:46.785Z,12.28
2023-04-11T21:50:13.353Z,12.28
2023-04-11T21:52:39.872Z,12.26
2023-04-11T21:55:08.851Z,12.26
2023-04-11T21:57:35.757Z,12.27
2023-04-11T22:00:02.502Z,12.33
2023-04-11T22:02:29.201Z,11.97
2023-04-11T22:07:31.665Z,12.28
2023-04-11T22:10:03.838Z,12.25
2023-04-11T22:12:30.917Z,12.23
2023-04-11T22:14:57.404Z,12.21
2023-04-11T22:17:23.904Z,12.14
2023-04-11T22:19:50.389Z,12.02
2023-04-11T22:22:17.415Z,11.93
2023-04-11T22:24:46.322Z,11.90
2023-04-11T22:27:13.672Z,11.85
2023-04-11T22:29:41.313Z,11.70
2023-04-11T22:32:08.183Z,11.65
2023-04-11T22:34:34.810Z,11.62
2023-04-11T22:37:01.341Z,11.53
2023-04-11T22:39:27.778Z,11.44
2023-04-11T22:41:54.575Z,11.12
2023-04-11T22:44:21.084Z,11.28
2023-04-11T22:47:06.505Z,11.15
2023-04-11T22:49:40.244Z,11.29
2023-04-11T23:03:02.594Z,10.55
2023-04-11T23:56:19.426Z,10.22
2023-04-11T23:58:45.951Z,10.26
